Weather Underground Historische gegevens

Dagelijkse Samenvatting september 20, 2018 Eenheden:  Metrisch    Engels   Beide
« Vorige Dag
Volgende Dag »
Dagelijkse Wekelijkse Maandelijkse Jaarlijkse Aangepaste
  Huidig: Hoog: Laag: Gemiddeld:
Temperatuur: -6.3 °C -17.8 °C -9.7 °C -7.7 °C
Dauwpunt: -19.6 °C -17.8 °C -40.8 °C -30.1 °C
Vochtigheid: 20 % Humidity % 1 % 13 %
Wind snelheid: 7.7 km/h 0 km/h 0 km/h 8.4 km/h
Windvlaag: 10.3 km/h 0 km/h - -
Wind:WSW - - SW
Luchtdruk: 34205.4 hPa 0 hPa 34205.4 hPa -
Neerslag: 0 mm      
Historical Graphs
 
 
Tabel voor september 20, 2018
Tijd Temperatuur Dauwpunt Luchtdruk Wind Wind snelheid Windvlaag Vochtigheid Regenval per uur
-17.8 °C -17.8 °C 0 hPa Calm     Humidity % 0 mm
00:00 -7.7 °C -39.5 °C 34354.4 hPa WSW 20.8 km/h 25.9 km/h 1 % 0 mm
00:15 -7.8 °C -39.6 °C 34354.4 hPa SSW 7.7 km/h 38.8 km/h 1 % 0 mm
00:30 -7.8 °C -39.6 °C 34351 hPa SSW 18.2 km/h 33.6 km/h 1 % 0 mm
00:45 -7.9 °C -39.7 °C 34351 hPa SW 5.1 km/h 18.2 km/h 1 % 0 mm
01:00 -8.1 °C -39.7 °C 34347.6 hPa SSW 5.1 km/h 20.8 km/h 1 % 0 mm
01:15 -8.2 °C -39.8 °C 34344.2 hPa SSW 2.6 km/h 12.9 km/h 1 % 0 mm
01:30 -8.3 °C -39.9 °C 34344.2 hPa WSW 12.9 km/h 25.9 km/h 1 % 0 mm
01:45 -8.4 °C -40 °C 34340.8 hPa SSW 10.3 km/h 15.6 km/h 1 % 0 mm
02:00 -8.5 °C -40 °C 34340.8 hPa Calm   23.3 km/h 1 % 0 mm
02:15 -8.6 °C -40.1 °C 34340.8 hPa SSW 5.1 km/h 20.8 km/h 1 % 0 mm
02:30 -8.5 °C -40 °C 34337.4 hPa SW 5.1 km/h 25.9 km/h 1 % 0 mm
02:45 -8.6 °C -40.1 °C 34337.4 hPa SW 5.1 km/h 33.6 km/h 1 % 0 mm
03:00 -8.7 °C -40.2 °C 34340.8 hPa SSW 5.1 km/h 12.9 km/h 1 % 0 mm
03:15 -8.8 °C -40.2 °C 34337.4 hPa SSW 2.6 km/h 20.8 km/h 1 % 0 mm
03:30 -8.9 °C -40.3 °C 34337.4 hPa WSW 5.1 km/h 20.8 km/h 1 % 0 mm
03:45 -9 °C -40.3 °C 34334 hPa SW 10.3 km/h 12.9 km/h 1 % 0 mm
04:00 -9.1 °C -40.4 °C 34337.4 hPa SW 2.6 km/h 18.2 km/h 1 % 0 mm
04:15 -9.1 °C -40.4 °C 34337.4 hPa WSW 23.3 km/h 23.3 km/h 1 % 0 mm
04:30 -9.2 °C -40.4 °C 34340.8 hPa SW 12.9 km/h 20.8 km/h 1 % 0 mm
04:45 -9.2 °C -40.4 °C 34340.8 hPa WSW 2.6 km/h 23.3 km/h 1 % 0 mm
05:00 -9.3 °C -40.5 °C 34337.4 hPa SSW 2.6 km/h 15.6 km/h 1 % 0 mm
05:15 -9.4 °C -40.6 °C 34337.4 hPa SW 5.1 km/h 10.3 km/h 1 % 0 mm
05:30 -9.5 °C -40.6 °C 34337.4 hPa SSW 2.6 km/h 18.2 km/h 1 % 0 mm
05:45 -9.6 °C -40.7 °C 34337.4 hPa Calm   7.7 km/h 1 % 0 mm
06:00 -9.7 °C -40.7 °C 34337.4 hPa SW 5.1 km/h 7.7 km/h 1 % 0 mm
06:15 -9.7 °C -40.7 °C 34337.4 hPa SW 7.7 km/h 12.9 km/h 1 % 0 mm
06:30 -9.7 °C -40.7 °C 34337.4 hPa Calm   7.7 km/h 1 % 0 mm
06:45 -9.7 °C -40.8 °C 34337.4 hPa South 5.1 km/h 12.9 km/h 1 % 0 mm
07:00 -9.7 °C -40.7 °C 34340.8 hPa SW 2.6 km/h 10.3 km/h 1 % 0 mm
07:15 -9.6 °C -40.7 °C 34337.4 hPa South 7.7 km/h 18.2 km/h 1 % 0 mm
07:30 -9.6 °C -40.7 °C 34337.4 hPa SW 2.6 km/h 12.9 km/h 1 % 0 mm
07:45 -9.6 °C -40.7 °C 34334 hPa SSW 5.1 km/h 25.9 km/h 1 % 0 mm
08:00 -9.6 °C -40.7 °C 34334 hPa SSW 5.1 km/h 15.6 km/h 1 % 0 mm
08:15 -9.6 °C -40.7 °C 34334 hPa South 7.7 km/h 12.9 km/h 1 % 0 mm
08:30 -9.6 °C -40.7 °C 34330.7 hPa South 7.7 km/h 20.8 km/h 1 % 0 mm
08:45 -9.5 °C -40.6 °C 34330.7 hPa South 15.6 km/h 25.9 km/h 1 % 0 mm
09:00 -9.4 °C -40.6 °C 34337.4 hPa SSW 7.7 km/h 23.3 km/h 1 % 0 mm
09:15 -9.3 °C -40.5 °C 34337.4 hPa South 7.7 km/h 20.8 km/h 1 % 0 mm
09:30 -9.1 °C -40.4 °C 34337.4 hPa South 7.7 km/h 33.6 km/h 1 % 0 mm
09:45 -8.9 °C -40.3 °C 34337.4 hPa SSW 7.7 km/h 18.2 km/h 1 % 0 mm
10:00 -8.7 °C -40.1 °C 34337.4 hPa SSW 12.9 km/h 12.9 km/h 1 % 0 mm
10:15 -8.1 °C -39.8 °C 34334 hPa SW 2.6 km/h 23.3 km/h 1 % 0 mm
10:30 -7.4 °C -39.3 °C 34330.7 hPa South 2.6 km/h 28.5 km/h 1 % 0 mm
10:45 -6.4 °C -38.7 °C 34327.3 hPa SSW 10.3 km/h 28.5 km/h 1 % 0 mm
11:00 -6.2 °C -29 °C 34327.3 hPa SW 5.1 km/h 25.9 km/h 5 % 0 mm
11:15 -6.2 °C -29 °C 34320.5 hPa SSW 7.7 km/h 18.2 km/h 5 % 0 mm
11:30 -6 °C -25 °C 34320.5 hPa WSW 12.9 km/h 23.3 km/h 9 % 0 mm
11:45 -6.2 °C -30.4 °C 34320.5 hPa SW 10.3 km/h 20.8 km/h 4 % 0 mm
12:00 -6.2 °C -25.2 °C 34327.3 hPa SSW 23.3 km/h 25.9 km/h 9 % 0 mm
12:15 -6.1 °C -19.3 °C 34327.3 hPa SW 7.7 km/h 31.1 km/h 20 % 0 mm
12:30 -5.4 °C -15.2 °C 34317.1 hPa SW 7.7 km/h 25.9 km/h 32 % 0 mm
12:45 -5.6 °C -13.5 °C 34320.5 hPa SSW 7.7 km/h 31.1 km/h 40 % 0 mm
13:00 -5.7 °C -15.9 °C 34323.9 hPa SW 7.7 km/h 23.3 km/h 30 % 0 mm
13:15 -6 °C -18.2 °C 34323.9 hPa WSW 10.3 km/h 20.8 km/h 23 % 0 mm
13:30 -5.5 °C -13 °C 34313.7 hPa SW 5.1 km/h 25.9 km/h 42 % 0 mm
13:45 -5.6 °C -12.9 °C 34310.3 hPa SSW 12.9 km/h 51.8 km/h 43 % 0 mm
14:00 -5.9 °C -13.9 °C 34307 hPa SSW 7.7 km/h 20.8 km/h 39 % 0 mm
14:15 -6 °C -15.2 °C 34310.3 hPa SSW 12.9 km/h 25.9 km/h 34 % 0 mm
14:30 -5.5 °C -12.8 °C 34310.3 hPa SW 12.9 km/h 31.1 km/h 43 % 0 mm
14:45 -5.7 °C -13.6 °C 34307 hPa SW 5.1 km/h 25.9 km/h 40 % 0 mm
15:00 -6 °C -15.9 °C 34303.6 hPa SW 28.5 km/h 28.5 km/h 31 % 0 mm
15:15 -6.1 °C -17.1 °C 34303.6 hPa WSW 25.9 km/h 41.4 km/h 27 % 0 mm
15:30 -6.2 °C -18 °C 34300.2 hPa WSW 23.3 km/h 28.5 km/h 24 % 0 mm
15:45 -6.2 °C -19.4 °C 34293.4 hPa SW 5.1 km/h 23.3 km/h 20 % 0 mm
16:00 -5.8 °C -17.4 °C 34283.3 hPa SSW 7.7 km/h 18.2 km/h 25 % 0 mm
16:15 -5.7 °C -16.4 °C 34276.5 hPa South 5.1 km/h 15.6 km/h 28 % 0 mm
16:30 -4.9 °C -11.2 °C 34273.1 hPa WSW 10.3 km/h 28.5 km/h 49 % 0 mm
16:45 -5.1 °C -10.7 °C 34266.3 hPa WSW 5.1 km/h 31.1 km/h 53 % 0 mm
17:00 -5.4 °C -12.4 °C 34256.2 hPa SSW 15.6 km/h 23.3 km/h 45 % 0 mm
17:15 -5.3 °C -12.5 °C 34252.8 hPa WSW 28.5 km/h 28.5 km/h 44 % 0 mm
17:30 -5.3 °C -12.3 °C 34246 hPa WSW 12.9 km/h 25.9 km/h 45 % 0 mm
17:45 -5.5 °C -13.6 °C 34239.2 hPa WSW 5.1 km/h 12.9 km/h 39 % 0 mm
18:00 -5.7 °C -15.2 °C 34235.8 hPa WSW 5.1 km/h 12.9 km/h 33 % 0 mm
18:15 -5.8 °C -17.1 °C 34229.1 hPa Calm   2.6 km/h 26 % 0 mm
18:30 -5.9 °C -17.5 °C 34222.3 hPa WSW 5.1 km/h 7.7 km/h 25 % 0 mm
18:45 -5.9 °C -17.5 °C 34215.5 hPa Calm   5.1 km/h 25 % 0 mm
19:00 -6.2 °C -18.3 °C 34212.1 hPa WSW 2.6 km/h 10.3 km/h 23 % 0 mm
19:15 -6.3 °C -19.6 °C 34205.4 hPa WSW 7.7 km/h 10.3 km/h 20 % 0 mm
Gegevens verzameld door Weather Underground - 2 mb

Script ontwikkeld door  Jim McMurry - jmcmurry@mwt.net Aangepast voor de template door  Wim van der Kuil - Leuven-Template.eu